Destinations Växjö Kronoberg Airport

Växjö Kronoberg Airport (ESMX / VXO)

Flights to Växjö Kronoberg Airport

Flight number From ETE Dispatch
SPY-320 EHGG Groningen Airport Eelde 01:35

Flights from Växjö Kronoberg Airport

Flight number To ETE Dispatch
SPY-321 EHGG Groningen Airport Eelde
About

Växjö Kronoberg Airport facts

Växjö Kronoberg Airport is located in Vaxjo at an elevation of 185.9 meters or 610 feet.

Currently, Speedy Airlines serves 2 flights to and from Växjö Kronoberg Airport.

Detailed airport info

Route map

Weather

Current weather

METAR

METAR

Metar data retrieved Friday, 19 July 2024 at 23:25 UTC

ESMX 192250Z AUTO 28004KT 9999 NCD 14/13 Q1017
Wind Temperature
4 kt 14c